Time;durP1;ratioP1;P1;durP2;ratioP2;P2;SDS_P1;SDS_P2;PMS_P1;PMS_P2;Temp;Humidity;BMP_temperature;BMP_pressure;BME280_temperature;BME280_humidity;BME280_pressure;Samples;Min_cycle;Max_cycle;Signal;HPM_P1;HPM_P2
2023/10/08 00:00:46;;;;;;;10.52;3.42;;;18.00;99.90;;;;;;5001331;28;20404;-78
2023/10/08 00:03:14;;;;;;;12.38;3.60;;;18.00;99.90;;;;;;5002719;28;20048;-78
2023/10/08 00:05:41;;;;;;;10.63;3.00;;;18.00;99.90;;;;;;5018492;28;20480;-78
2023/10/08 00:08:09;;;;;;;10.30;3.08;;;18.00;99.90;;;;;;5017358;28;20037;-78
2023/10/08 00:10:45;;;;;;;8.88;2.80;;;18.00;99.90;;;;;;5017283;28;20041;-78
2023/10/08 00:13:15;;;;;;;11.73;3.58;;;18.00;99.90;;;;;;5017927;28;20507;-78
2023/10/08 00:15:52;;;;;;;13.13;3.15;;;18.00;99.90;;;;;;5001937;28;20386;-78
2023/10/08 00:18:20;;;;;;;9.18;2.33;;;18.00;99.90;;;;;;4984280;28;20025;-78
2023/10/08 00:20:54;;;;;;;10.00;3.00;;;18.00;99.90;;;;;;5001708;28;20036;-78
2023/10/08 00:23:22;;;;;;;7.85;2.55;;;17.90;99.90;;;;;;5002001;28;20333;-78
2023/10/08 00:25:50;;;;;;;10.88;3.58;;;17.90;99.90;;;;;;5011728;28;20038;-78
2023/10/08 00:28:17;;;;;;;9.15;2.78;;;17.90;99.90;;;;;;5018282;28;20029;-78
2023/10/08 00:30:44;;;;;;;9.15;3.15;;;17.90;99.90;;;;;;4984512;28;20029;-78
2023/10/08 00:33:14;;;;;;;11.05;3.08;;;17.90;99.90;;;;;;5032003;28;20036;-78
2023/10/08 00:35:41;;;;;;;8.82;2.17;;;17.90;99.90;;;;;;5000454;28;20046;-78
2023/10/08 00:38:15;;;;;;;8.30;2.72;;;17.90;99.90;;;;;;5015843;28;20037;-79
2023/10/08 00:40:45;;;;;;;12.20;3.17;;;17.90;99.90;;;;;;4983590;28;20061;-78
2023/10/08 00:43:35;;;;;;;11.90;3.40;;;17.90;99.90;;;;;;5000320;28;20125;-78
2023/10/08 00:46:04;;;;;;;10.63;3.13;;;17.90;99.90;;;;;;5015723;28;20034;-78
2023/10/08 00:48:35;;;;;;;12.18;2.97;;;17.90;99.90;;;;;;5017826;28;20064;-78
2023/10/08 00:54:05;;;;;;;11.57;3.25;;;17.80;99.90;;;;;;5000341;28;20485;-78
2023/10/08 00:59:21;;;;;;;13.18;2.97;;;17.80;99.90;;;;;;5018907;28;20033;-78
2023/10/08 01:01:51;;;;;;;9.43;2.42;;;17.80;99.90;;;;;;5001581;28;20040;-78
2023/10/08 01:04:18;;;;;;;8.15;2.60;;;17.80;99.90;;;;;;5015102;28;20033;-78
2023/10/08 01:06:49;;;;;;;10.65;3.15;;;17.80;99.90;;;;;;5030198;28;20033;-78
2023/10/08 01:09:18;;;;;;;11.88;3.25;;;17.80;99.90;;;;;;5000241;28;20038;-78
2023/10/08 01:11:49;;;;;;;9.95;3.28;;;17.80;99.90;;;;;;5018267;28;20029;-78
2023/10/08 01:14:25;;;;;;;8.75;2.55;;;17.80;99.90;;;;;;5033481;28;20064;-78
2023/10/08 01:16:51;;;;;;;8.13;2.00;;;17.80;99.90;;;;;;5016389;28;20045;-78
2023/10/08 01:19:20;;;;;;;8.13;2.70;;;17.80;99.90;;;;;;5018552;28;20029;-78
2023/10/08 01:21:46;;;;;;;7.93;2.35;;;17.80;99.90;;;;;;5001274;28;20404;-78
2023/10/08 01:24:17;;;;;;;8.95;2.75;;;17.70;99.90;;;;;;5019846;28;20029;-78
2023/10/08 01:26:45;;;;;;;8.27;2.03;;;17.70;99.90;;;;;;5001533;28;20396;-78
2023/10/08 01:29:21;;;;;;;7.90;2.50;;;17.70;99.90;;;;;;5016289;28;20025;-79
2023/10/08 01:31:48;;;;;;;6.78;2.08;;;17.70;99.90;;;;;;5030858;28;20038;-78
2023/10/08 01:34:17;;;;;;;12.38;2.95;;;17.70;99.90;;;;;;5000546;28;20044;-78
2023/10/08 01:36:46;;;;;;;8.43;2.88;;;17.70;99.90;;;;;;4998183;28;20415;-78
2023/10/08 01:39:16;;;;;;;5.72;1.83;;;17.70;99.90;;;;;;4993986;28;20496;-78
2023/10/08 01:41:44;;;;;;;7.68;3.00;;;17.70;99.90;;;;;;5002594;28;20041;-78
2023/10/08 01:44:10;;;;;;;9.52;2.33;;;17.70;99.90;;;;;;5018667;28;20420;-79
2023/10/08 01:46:40;;;;;;;7.60;1.98;;;17.70;99.90;;;;;;5000574;28;20054;-78
2023/10/08 01:49:14;;;;;;;7.93;2.25;;;17.60;99.90;;;;;;4983923;28;20491;-78
2023/10/08 01:51:46;;;;;;;8.73;2.40;;;17.60;99.90;;;;;;5022089;28;20033;-78
2023/10/08 01:54:17;;;;;;;8.57;2.50;;;17.60;99.90;;;;;;5004165;28;20535;-78
2023/10/08 01:56:44;;;;;;;7.68;2.30;;;17.60;99.90;;;;;;5001206;28;20056;-78
2023/10/08 01:59:13;;;;;;;7.47;1.98;;;17.60;99.90;;;;;;4999401;28;20037;-78
2023/10/08 02:01:41;;;;;;;5.18;1.80;;;17.60;99.90;;;;;;5006816;28;20060;-78
2023/10/08 02:04:07;;;;;;;8.90;2.47;;;17.50;99.90;;;;;;5021204;28;20252;-78
2023/10/08 02:06:34;;;;;;;5.88;1.95;;;17.60;99.90;;;;;;5018022;28;20037;-78
2023/10/08 02:09:07;;;;;;;9.07;2.30;;;17.60;99.90;;;;;;5020782;28;20037;-78
2023/10/08 02:11:45;;;;;;;9.48;2.53;;;17.60;99.90;;;;;;5019884;28;20045;-77
2023/10/08 02:14:15;;;;;;;8.52;2.50;;;17.50;99.90;;;;;;5004276;28;20468;-78
2023/10/08 02:16:44;;;;;;;8.05;2.53;;;17.50;99.90;;;;;;5021083;28;20036;-78
2023/10/08 02:19:10;;;;;;;7.03;2.03;;;17.50;99.90;;;;;;5015483;28;20025;-78
2023/10/08 02:21:40;;;;;;;7.22;1.88;;;17.50;99.90;;;;;;5002448;28;20633;-78
2023/10/08 02:24:08;;;;;;;11.18;3.20;;;17.50;99.90;;;;;;4986759;28;20389;-78
2023/10/08 02:26:34;;;;;;;11.68;2.38;;;17.50;99.90;;;;;;4987438;28;20044;-78
2023/10/08 02:29:01;;;;;;;6.28;2.00;;;17.50;99.90;;;;;;5021008;28;20033;-78
2023/10/08 02:31:28;;;;;;;9.93;3.08;;;17.50;99.90;;;;;;5021530;28;20349;-78
2023/10/08 02:33:54;;;;;;;11.75;3.28;;;17.50;99.90;;;;;;5004401;28;20037;-77
2023/10/08 02:36:20;;;;;;;10.15;3.22;;;17.50;99.90;;;;;;4989008;28;20034;-77
2023/10/08 02:38:49;;;;;;;7.30;2.58;;;17.60;99.90;;;;;;5018524;28;20385;-78
2023/10/08 02:41:17;;;;;;;7.22;2.30;;;17.50;99.90;;;;;;5018411;28;20041;-78
2023/10/08 02:43:44;;;;;;;6.22;1.92;;;17.50;99.90;;;;;;5021968;28;20040;-78
2023/10/08 02:46:15;;;;;;;7.18;2.28;;;17.50;99.90;;;;;;4988507;28;20599;-78
2023/10/08 02:48:42;;;;;;;16.05;3.67;;;17.50;99.90;;;;;;5005760;28;20044;-78
2023/10/08 02:51:14;;;;;;;8.65;2.65;;;17.50;99.90;;;;;;5006948;28;20040;-78
2023/10/08 02:53:44;;;;;;;6.07;2.22;;;17.50;99.90;;;;;;5004424;28;20411;-78
2023/10/08 02:56:13;;;;;;;7.15;2.15;;;17.50;99.90;;;;;;5002463;28;20497;-78
2023/10/08 02:58:40;;;;;;;8.90;2.92;;;17.50;99.90;;;;;;5019038;28;20029;-78
2023/10/08 03:01:12;;;;;;;6.43;2.35;;;17.50;99.90;;;;;;4988497;28;20037;-78
2023/10/08 03:03:40;;;;;;;7.30;2.22;;;17.50;99.90;;;;;;5017239;28;21611;-78
2023/10/08 03:06:11;;;;;;;7.80;2.78;;;17.50;99.90;;;;;;5002446;28;20038;-78
2023/10/08 03:08:41;;;;;;;8.05;2.38;;;17.50;99.90;;;;;;5018179;28;20034;-78
2023/10/08 03:11:16;;;;;;;9.57;2.83;;;17.40;99.90;;;;;;5004987;28;20036;-78
2023/10/08 03:13:46;;;;;;;6.47;2.17;;;17.50;99.90;;;;;;4987614;28;20040;-78
2023/10/08 03:16:14;;;;;;;10.02;2.83;;;17.40;99.90;;;;;;4987609;28;21048;-78
2023/10/08 03:18:49;;;;;;;7.95;2.33;;;17.50;99.90;;;;;;5005472;28;20030;-78
2023/10/08 03:21:48;;;;;;;8.00;3.05;;;17.50;99.90;;;;;;5005216;28;20407;-78
2023/10/08 03:24:29;;;;;;;9.43;2.13;;;17.50;99.90;;;;;;5020023;28;20033;-79
2023/10/08 03:27:05;;;;;;;7.80;2.38;;;17.50;99.90;;;;;;4984781;28;20053;-78
2023/10/08 03:29:42;;;;;;;7.45;2.30;;;17.50;99.90;;;;;;5002536;28;20483;-78
2023/10/08 03:32:14;;;;;;;8.73;2.10;;;17.50;99.90;;;;;;5022055;28;20427;-79
2023/10/08 03:34:47;;;;;;;7.78;2.47;;;17.50;99.90;;;;;;5018113;28;20029;-78
2023/10/08 03:37:20;;;;;;;7.35;2.67;;;17.50;99.90;;;;;;5017786;28;20044;-78
2023/10/08 03:39:51;;;;;;;7.22;2.22;;;17.50;99.90;;;;;;5001978;28;20614;-78
2023/10/08 03:42:25;;;;;;;7.55;2.30;;;17.50;99.90;;;;;;5021341;28;20356;-78
2023/10/08 03:44:52;;;;;;;7.45;2.42;;;17.50;99.90;;;;;;4985501;28;20605;-78
2023/10/08 03:47:19;;;;;;;5.88;1.98;;;17.40;99.90;;;;;;5017820;28;20033;-78
2023/10/08 03:49:46;;;;;;;9.45;3.00;;;17.50;99.90;;;;;;5020069;28;20484;-78
2023/10/08 03:52:15;;;;;;;8.05;2.50;;;17.40;99.90;;;;;;5023176;28;20044;-78
2023/10/08 03:57:41;;;;;;;9.02;3.65;;;17.40;99.90;;;;;;5016221;28;20392;-78
2023/10/08 04:00:18;;;;;;;8.73;3.10;;;17.40;99.90;;;;;;4997544;28;20820;-78
2023/10/08 04:03:07;;;;;;;10.32;3.50;;;17.40;99.90;;;;;;5019949;28;20037;-78
2023/10/08 04:08:42;;;;;;;9.07;3.67;;;17.40;99.90;;;;;;5017392;28;20037;-78
2023/10/08 04:11:22;;;;;;;7.65;3.40;;;17.40;99.90;;;;;;5035151;28;20037;-78
2023/10/08 04:13:48;;;;;;;10.73;4.55;;;17.50;99.90;;;;;;5017736;28;20037;-78
2023/10/08 04:16:18;;;;;;;8.70;3.85;;;17.50;99.90;;;;;;5002133;28;20756;-78
2023/10/08 04:18:50;;;;;;;12.13;4.28;;;17.50;99.90;;;;;;5019084;28;20042;-78
2023/10/08 04:21:20;;;;;;;17.58;4.50;;;17.50;99.90;;;;;;5004022;28;20497;-78
2023/10/08 04:23:51;;;;;;;16.35;5.38;;;17.50;99.90;;;;;;5019940;28;20041;-78
2023/10/08 04:26:23;;;;;;;16.80;5.22;;;17.50;99.90;;;;;;5016098;28;20038;-78
2023/10/08 04:28:54;;;;;;;;;;;17.40;99.90;;;;;;5001840;28;20104;-79
2023/10/08 04:31:24;;;;;;;15.00;4.60;;;17.20;99.90;;;;;;4999496;28;19919;-79
2023/10/08 04:33:52;;;;;;;18.63;5.45;;;17.00;99.90;;;;;;5011535;28;20519;-79
2023/10/08 04:36:19;;;;;;;15.00;4.20;;;16.90;99.90;;;;;;5000855;28;20029;-79
2023/10/08 04:38:48;;;;;;;10.55;2.80;;;16.60;99.90;;;;;;5016891;28;20397;-79
2023/10/08 04:41:19;;;;;;;7.72;2.13;;;16.40;99.90;;;;;;5019251;28;20040;-79
2023/10/08 04:43:45;;;;;;;6.50;2.13;;;16.30;99.90;;;;;;5016549;28;20045;-79
2023/10/08 04:49:09;;;;;;;6.45;1.70;;;16.00;99.90;;;;;;5010687;28;20431;-78
2023/10/08 04:51:43;;;;;;;10.50;2.40;;;16.00;99.90;;;;;;5014514;28;20396;-79
2023/10/08 04:54:16;;;;;;;3.72;1.17;;;15.90;99.90;;;;;;5017445;28;20033;-79
2023/10/08 04:56:43;;;;;;;7.43;2.08;;;15.80;99.90;;;;;;5017411;28;20048;-79
2023/10/08 04:59:13;;;;;;;7.07;1.77;;;15.70;99.90;;;;;;5018227;28;20029;-79
2023/10/08 05:01:47;;;;;;;5.75;1.05;;;15.70;99.90;;;;;;5001776;28;20053;-79
2023/10/08 05:04:26;;;;;;;4.68;1.77;;;15.70;99.90;;;;;;4984541;28;20045;-79
2023/10/08 05:09:51;;;;;;;4.65;1.02;;;15.60;99.90;;;;;;5001500;28;20404;-79
2023/10/08 05:12:37;;;;;;;3.53;1.00;;;15.60;99.90;;;;;;5018310;28;20033;-80
2023/10/08 05:20:58;;;;;;;5.75;1.90;;;15.60;99.90;;;;;;5000104;28;20036;-79
2023/10/08 05:28:46;;;;;;;5.95;1.73;;;15.60;99.90;;;;;;5035186;28;20041;-80
2023/10/08 05:41:51;;;;;;;7.18;2.13;;;15.40;99.90;;;;;;5006847;28;20048;-78
2023/10/08 06:13:06;;;;;;;5.40;1.50;;;14.90;99.90;;;;;;5024621;28;20041;-78
2023/10/08 06:18:26;;;;;;;8.32;2.58;;;14.90;99.90;;;;;;5003380;28;20080;-79
2023/10/08 06:20:54;;;;;;;8.68;2.60;;;14.80;99.90;;;;;;5021692;28;20033;-79
2023/10/08 06:23:23;;;;;;;7.53;2.85;;;14.80;99.90;;;;;;4985983;28;20041;-79
2023/10/08 06:26:05;;;;;;;7.43;1.85;;;14.70;99.90;;;;;;5003661;28;21226;-78
2023/10/08 06:28:35;;;;;;;4.30;1.40;;;14.70;99.90;;;;;;4986226;28;20034;-79
2023/10/08 06:31:06;;;;;;;6.57;2.47;;;14.60;99.90;;;;;;5020278;28;20026;-77
2023/10/08 06:33:33;;;;;;;4.45;1.08;;;14.70;99.90;;;;;;5014949;28;20033;-78
2023/10/08 06:38:48;;;;;;;4.25;1.42;;;14.70;99.90;;;;;;5022918;28;20033;-81
2023/10/08 06:41:17;;;;;;;5.57;1.80;;;14.60;99.90;;;;;;5003828;28;20033;-79
2023/10/08 06:43:48;;;;;;;4.97;2.38;;;14.60;99.90;;;;;;5019372;28;20033;-77
2023/10/08 06:46:21;;;;;;;5.13;2.08;;;14.60;99.90;;;;;;5007049;28;20045;-77
2023/10/08 06:48:49;;;;;;;3.42;2.28;;;14.60;99.90;;;;;;4985652;28;20052;-78
2023/10/08 06:51:18;;;;;;;4.88;2.30;;;14.50;99.90;;;;;;5019519;28;20037;-77
2023/10/08 06:53:47;;;;;;;7.38;2.10;;;14.60;99.90;;;;;;5016115;28;20040;-77
2023/10/08 06:56:15;;;;;;;4.25;2.30;;;14.60;99.90;;;;;;5018259;28;20025;-77
2023/10/08 06:58:52;;;;;;;2.67;1.63;;;14.60;99.90;;;;;;5001608;28;20032;-77
2023/10/08 07:01:24;;;;;;;3.00;1.80;;;14.60;99.90;;;;;;5019958;28;20045;-78
2023/10/08 07:03:52;;;;;;;3.55;2.03;;;14.60;99.90;;;;;;5019555;28;20037;-77
2023/10/08 07:06:31;;;;;;;3.10;1.90;;;14.70;99.90;;;;;;5021213;28;20051;-78
2023/10/08 07:09:05;;;;;;;5.40;2.72;;;14.70;99.90;;;;;;4984706;28;20541;-77
2023/10/08 07:11:37;;;;;;;3.72;2.53;;;14.70;99.90;;;;;;5004501;28;20052;-77
2023/10/08 07:14:04;;;;;;;3.67;2.70;;;14.80;99.90;;;;;;5003080;28;20094;-77
2023/10/08 07:16:31;;;;;;;3.88;3.10;;;14.80;99.90;;;;;;5021898;28;20037;-77
2023/10/08 07:19:15;;;;;;;4.35;3.10;;;14.80;99.90;;;;;;5004740;28;20033;-77
2023/10/08 07:21:45;;;;;;;4.80;3.72;;;14.90;99.90;;;;;;5002633;28;20716;-78
2023/10/08 07:24:21;;;;;;;4.65;4.00;;;14.90;99.90;;;;;;4998133;28;20046;-76
2023/10/08 07:26:49;;;;;;;3.63;3.33;;;14.90;99.90;;;;;;4985760;28;20045;-77
2023/10/08 07:29:17;;;;;;;4.13;3.45;;;14.90;99.90;;;;;;5003670;28;20042;-77
2023/10/08 07:31:48;;;;;;;6.60;3.72;;;14.90;99.90;;;;;;5020496;28;20029;-77
2023/10/08 07:34:25;;;;;;;3.88;3.05;;;14.90;99.90;;;;;;5020427;28;20033;-76
2023/10/08 07:36:54;;;;;;;3.53;3.22;;;15.00;99.90;;;;;;5018352;28;20056;-77
2023/10/08 07:41:53;;;;;;;4.90;4.20;;;15.00;99.90;;;;;;5022197;28;20088;-76
2023/10/08 07:44:24;;;;;;;4.03;3.60;;;15.00;99.90;;;;;;5021102;28;20045;-76
2023/10/08 07:46:53;;;;;;;3.28;2.90;;;15.00;99.90;;;;;;5020806;28;20508;-76
2023/10/08 07:49:22;;;;;;;3.50;3.17;;;15.00;99.90;;;;;;4988938;28;20037;-77
2023/10/08 07:51:52;;;;;;;3.50;3.15;;;15.00;99.90;;;;;;5023139;28;20033;-77
2023/10/08 07:54:22;;;;;;;3.15;2.70;;;15.00;99.90;;;;;;5023645;28;20037;-77
2023/10/08 07:56:51;;;;;;;2.20;1.92;;;15.00;99.90;;;;;;5000964;28;20041;-77
2023/10/08 07:59:18;;;;;;;2.85;2.08;;;15.00;99.90;;;;;;5018245;28;20029;-77
2023/10/08 08:01:44;;;;;;;2.85;2.50;;;15.10;99.90;;;;;;5017811;28;20033;-77
2023/10/08 08:04:21;;;;;;;4.40;4.00;;;15.20;99.90;;;;;;5018625;28;20049;-77
2023/10/08 08:06:52;;;;;;;5.43;4.93;;;15.20;99.90;;;;;;4995486;28;20038;-77
2023/10/08 08:09:23;;;;;;;5.43;4.93;;;15.10;99.90;;;;;;5019639;28;20041;-77
2023/10/08 08:11:49;;;;;;;4.60;4.20;;;15.00;99.90;;;;;;5019642;28;20429;-77
2023/10/08 08:14:24;;;;;;;5.68;5.15;;;15.00;99.90;;;;;;5001317;28;20040;-77
2023/10/08 08:16:51;;;;;;;7.15;6.45;;;15.00;99.90;;;;;;5035556;28;20049;-77
2023/10/08 08:19:24;;;;;;;8.05;7.20;;;15.00;99.90;;;;;;4984445;28;20048;-77
2023/10/08 08:21:52;;;;;;;6.07;5.30;;;14.90;99.90;;;;;;5016651;28;20401;-76
2023/10/08 08:24:35;;;;;;;7.47;5.30;;;14.90;99.90;;;;;;5017046;28;20029;-77
2023/10/08 08:27:11;;;;;;;9.05;8.13;;;14.90;99.90;;;;;;4990731;28;20041;-76
2023/10/08 08:29:44;;;;;;;7.60;6.57;;;14.90;99.90;;;;;;5015247;28;20029;-77
2023/10/08 08:32:21;;;;;;;7.03;6.28;;;14.80;99.90;;;;;;4996757;28;20096;-77
2023/10/08 08:34:50;;;;;;;6.65;5.47;;;14.80;99.90;;;;;;5004966;28;20044;-77
2023/10/08 08:37:17;;;;;;;6.00;4.57;;;14.80;99.90;;;;;;4982977;28;20718;-77
2023/10/08 08:39:43;;;;;;;8.73;4.95;;;15.00;99.90;;;;;;5000549;28;21694;-77
2023/10/08 08:42:10;;;;;;;4.63;3.67;;;15.10;99.90;;;;;;5016048;28;20045;-77
2023/10/08 08:44:45;;;;;;;6.35;4.78;;;15.20;99.90;;;;;;4998873;28;20036;-77
2023/10/08 08:47:17;;;;;;;6.88;5.32;;;15.20;99.90;;;;;;5016961;28;20045;-77
2023/10/08 08:49:48;;;;;;;8.60;5.47;;;15.30;99.90;;;;;;5017359;28;20476;-77
2023/10/08 08:52:14;;;;;;;7.30;5.20;;;15.30;99.90;;;;;;5015731;28;20033;-77
2023/10/08 08:54:44;;;;;;;5.18;4.00;;;15.30;99.90;;;;;;4997782;28;20481;-77
2023/10/08 08:57:14;;;;;;;5.18;4.30;;;15.20;99.90;;;;;;5026057;28;20029;-77
2023/10/08 08:59:50;;;;;;;5.45;3.30;;;15.20;99.90;;;;;;4999355;28;20038;-77
2023/10/08 09:02:18;;;;;;;5.85;2.90;;;15.20;99.90;;;;;;4999974;28;20037;-77
2023/10/08 09:04:45;;;;;;;4.97;2.83;;;15.30;99.90;;;;;;5018055;28;20034;-77
2023/10/08 09:07:12;;;;;;;3.53;1.77;;;15.40;99.90;;;;;;4994274;28;20567;-77
2023/10/08 09:09:41;;;;;;;5.22;2.05;;;15.50;99.90;;;;;;5017856;28;20036;-77
2023/10/08 09:12:10;;;;;;;3.00;1.30;;;15.60;99.90;;;;;;5015496;28;20041;-77
2023/10/08 09:14:38;;;;;;;3.53;2.03;;;15.70;99.90;;;;;;4992314;28;20048;-77
2023/10/08 09:17:05;;;;;;;3.28;1.50;;;15.80;99.90;;;;;;4999207;28;20037;-77
2023/10/08 09:19:39;;;;;;;3.75;1.27;;;15.80;99.90;;;;;;5001939;28;20037;-77
2023/10/08 09:22:10;;;;;;;4.35;1.70;;;15.90;99.90;;;;;;5019948;28;20049;-77
2023/10/08 09:24:38;;;;;;;3.75;1.20;;;15.90;99.90;;;;;;4998398;28;20053;-78
2023/10/08 09:27:13;;;;;;;3.30;1.30;;;16.00;99.90;;;;;;5014725;28;20347;-79
2023/10/08 09:29:41;;;;;;;2.33;0.80;;;16.20;99.90;;;;;;5016673;28;20040;-78
2023/10/08 09:32:10;;;;;;;2.85;1.00;;;16.40;99.90;;;;;;5000406;28;20128;-77
2023/10/08 09:34:37;;;;;;;3.58;1.42;;;16.60;99.90;;;;;;5019598;28;20629;-78
2023/10/08 09:37:03;;;;;;;2.28;0.80;;;16.70;99.90;;;;;;5014444;28;20037;-77
2023/10/08 09:39:33;;;;;;;2.72;0.70;;;16.80;99.90;;;;;;5019324;28;20301;-77
2023/10/08 09:42:02;;;;;;;2.65;0.90;;;16.90;99.90;;;;;;4999526;28;20033;-78
2023/10/08 09:44:30;;;;;;;2.97;0.80;;;16.90;99.90;;;;;;5015407;28;20472;-77
2023/10/08 09:47:03;;;;;;;3.25;1.10;;;16.90;99.90;;;;;;5007697;28;20025;-78
2023/10/08 09:49:32;;;;;;;3.45;0.82;;;16.90;99.90;;;;;;5016548;28;20045;-78
2023/10/08 09:52:06;;;;;;;2.45;0.90;;;16.90;99.90;;;;;;5016104;28;20684;-77
2023/10/08 09:54:43;;;;;;;2.03;0.80;;;16.90;99.90;;;;;;4981836;28;20041;-78
2023/10/08 09:57:11;;;;;;;2.10;0.70;;;16.90;99.90;;;;;;4999033;28;20401;-77
2023/10/08 09:59:40;;;;;;;3.40;0.80;;;17.00;99.90;;;;;;5000235;28;20049;-78
2023/10/08 10:02:10;;;;;;;1.52;0.60;;;17.00;99.90;;;;;;4999258;28;20748;-77
2023/10/08 10:04:45;;;;;;;2.58;0.70;;;17.00;99.90;;;;;;4998041;28;20034;-77
2023/10/08 10:07:14;;;;;;;2.45;0.68;;;17.10;99.90;;;;;;4999883;28;20044;-78
2023/10/08 10:09:46;;;;;;;2.45;0.70;;;17.20;99.90;;;;;;5013686;28;20659;-77
2023/10/08 10:12:17;;;;;;;;;;;17.20;99.90;;;;;;5020719;28;20036;-77
2023/10/08 10:14:48;;;;;;;3.13;0.70;;;17.20;99.90;;;;;;5020597;28;19909;-78
2023/10/08 10:17:25;;;;;;;3.47;0.70;;;17.30;99.90;;;;;;5020896;28;20049;-78
2023/10/08 10:20:02;;;;;;;2.00;0.90;;;17.30;99.90;;;;;;5022243;28;20048;-77
2023/10/08 10:22:32;;;;;;;3.47;1.00;;;17.40;99.90;;;;;;5003515;28;20040;-77
2023/10/08 10:25:03;;;;;;;4.20;1.13;;;17.40;99.90;;;;;;5018628;28;20056;-77
2023/10/08 10:27:30;;;;;;;1.48;0.65;;;17.50;99.90;;;;;;5020848;28;20044;-77
2023/10/08 10:30:12;;;;;;;2.03;0.60;;;17.60;99.90;;;;;;5005009;28;20025;-77
2023/10/08 10:32:45;;;;;;;3.55;0.60;;;17.70;99.90;;;;;;5020645;28;20040;-77
2023/10/08 10:35:17;;;;;;;4.15;0.90;;;17.80;99.90;;;;;;5034088;28;20087;-77
2023/10/08 10:37:51;;;;;;;2.53;0.50;;;17.80;99.90;;;;;;5021955;28;20048;-76
2023/10/08 10:40:40;;;;;;;1.65;0.60;;;17.90;99.90;;;;;;5017963;28;20041;-76
2023/10/08 10:43:09;;;;;;;2.47;0.73;;;17.90;99.90;;;;;;5004794;28;20057;-77
2023/10/08 10:45:46;;;;;;;3.67;0.60;;;17.90;99.90;;;;;;5023200;28;20364;-77
2023/10/08 10:56:44;;;;;;;2.55;0.70;;;18.30;99.90;;;;;;5012074;28;20038;-76
2023/10/08 10:59:26;;;;;;;3.67;0.50;;;18.40;99.90;;;;;;5016889;28;20033;-77
2023/10/08 11:04:47;;;;;;;6.05;0.50;;;18.60;99.90;;;;;;4998192;28;20057;-77
2023/10/08 11:07:17;;;;;;;2.97;0.40;;;18.70;99.90;;;;;;5024687;28;20036;-78
2023/10/08 11:09:46;;;;;;;1.77;0.30;;;18.80;99.90;;;;;;4986172;28;20045;-78
2023/10/08 11:12:18;;;;;;;1.85;0.40;;;18.80;99.90;;;;;;4986276;28;20048;-77
2023/10/08 11:14:47;;;;;;;3.15;0.40;;;18.90;99.90;;;;;;4985454;28;20266;-78
2023/10/08 11:17:22;;;;;;;2.05;0.43;;;18.80;99.90;;;;;;5001187;28;20044;-77
2023/10/08 11:19:50;;;;;;;3.72;0.40;;;18.90;99.90;;;;;;5014524;28;20033;-77
2023/10/08 11:22:18;;;;;;;1.25;0.38;;;18.90;99.90;;;;;;4983561;28;20051;-77
2023/10/08 11:24:48;;;;;;;2.00;0.32;;;18.90;99.90;;;;;;4982883;28;20047;-78
2023/10/08 11:27:28;;;;;;;1.02;0.30;;;19.00;99.90;;;;;;5005426;28;20048;-77
2023/10/08 11:29:57;;;;;;;2.75;0.50;;;19.00;99.90;;;;;;5001717;28;20037;-78
2023/10/08 11:32:29;;;;;;;2.63;0.40;;;19.00;99.90;;;;;;5018865;28;20388;-78
2023/10/08 11:35:00;;;;;;;1.33;0.50;;;19.00;99.90;;;;;;5002344;28;20064;-77
2023/10/08 11:37:33;;;;;;;1.55;0.50;;;19.10;99.90;;;;;;5002529;28;20037;-78
2023/10/08 11:40:08;;;;;;;2.22;0.40;;;19.10;99.90;;;;;;5020625;28;20044;-77
2023/10/08 11:45:48;;;;;;;2.17;0.47;;;18.80;99.90;;;;;;5022632;28;20432;-78
2023/10/08 11:48:03;;;;;;;2.63;0.38;;;18.70;99.90;;;;;;5034108;28;20061;-77
2023/10/08 11:50:32;;;;;;;1.63;0.40;;;18.50;99.90;;;;;;5006492;28;20033;-77
2023/10/08 11:53:08;;;;;;;2.97;0.38;;;18.40;99.90;;;;;;5020172;28;20029;-78
2023/10/08 11:55:37;;;;;;;1.58;0.50;;;18.40;99.90;;;;;;5001882;28;20056;-77
2023/10/08 11:58:11;;;;;;;1.98;0.40;;;18.30;99.90;;;;;;5018026;28;20029;-77
2023/10/08 12:00:46;;;;;;;2.08;0.47;;;18.20;99.90;;;;;;5002011;28;20033;-78
2023/10/08 12:03:17;;;;;;;1.92;0.50;;;18.10;99.90;;;;;;5019647;28;20522;-77
2023/10/08 12:05:48;;;;;;;2.17;0.50;;;18.00;99.90;;;;;;4985720;28;20484;-77
2023/10/08 12:08:16;;;;;;;3.05;0.60;;;18.10;99.90;;;;;;4986083;28;20044;-77
2023/10/08 12:10:46;;;;;;;3.58;0.60;;;18.10;99.90;;;;;;5002279;28;20036;-76
2023/10/08 12:13:13;;;;;;;1.27;0.40;;;18.10;99.90;;;;;;5034822;28;20907;-77
2023/10/08 12:15:41;;;;;;;1.20;0.50;;;18.00;99.90;;;;;;5002157;28;20036;-77
2023/10/08 12:18:08;;;;;;;1.33;0.40;;;18.00;99.90;;;;;;5003200;28;20039;-77
2023/10/08 12:20:37;;;;;;;1.02;0.40;;;18.00;99.90;;;;;;5023566;28;20500;-77
2023/10/08 12:23:04;;;;;;;1.00;0.30;;;18.10;99.90;;;;;;5005679;28;20037;-77
2023/10/08 12:25:32;;;;;;;1.40;0.70;;;18.20;99.90;;;;;;5018824;28;20033;-78
2023/10/08 12:28:04;;;;;;;1.40;0.70;;;18.20;99.90;;;;;;5016462;28;20269;-77
2023/10/08 12:30:41;;;;;;;1.57;0.57;;;18.20;99.90;;;;;;5013678;28;20021;-77
2023/10/08 12:33:12;;;;;;;1.38;0.60;;;18.20;99.90;;;;;;5001798;28;20800;-77
2023/10/08 12:35:40;;;;;;;1.10;0.50;;;18.10;99.90;;;;;;5000515;28;20053;-77
2023/10/08 12:38:06;;;;;;;1.00;0.50;;;18.20;99.90;;;;;;5022111;28;20038;-78
2023/10/08 12:40:48;;;;;;;1.27;0.60;;;18.20;99.90;;;;;;5004284;28;20296;-77
2023/10/08 12:43:18;;;;;;;1.10;0.47;;;18.20;99.90;;;;;;5003400;28;20057;-77
2023/10/08 12:45:52;;;;;;;1.58;0.70;;;18.20;99.90;;;;;;5003729;28;20288;-78
2023/10/08 12:48:21;;;;;;;1.80;0.40;;;18.20;99.90;;;;;;5021817;28;20029;-77
2023/10/08 12:50:58;;;;;;;1.50;0.50;;;18.10;99.90;;;;;;5018723;28;20325;-77
2023/10/08 12:53:33;;;;;;;1.00;0.52;;;18.10;99.90;;;;;;5018534;28;20384;-77
2023/10/08 12:56:05;;;;;;;1.63;0.45;;;18.10;99.90;;;;;;5020653;28;20035;-77
2023/10/08 12:58:43;;;;;;;0.95;0.50;;;18.00;99.90;;;;;;4996227;28;20041;-77
2023/10/08 13:01:14;;;;;;;1.23;0.40;;;18.00;99.90;;;;;;5034139;28;20034;-77
2023/10/08 13:03:41;;;;;;;2.80;0.68;;;18.00;99.90;;;;;;5016747;28;20493;-77
2023/10/08 13:06:14;;;;;;;2.15;0.65;;;17.90;99.90;;;;;;5000136;28;20508;-77
2023/10/08 13:08:41;;;;;;;1.17;0.50;;;17.90;99.90;;;;;;4996752;28;20532;-77
2023/10/08 13:11:07;;;;;;;0.82;0.40;;;17.90;99.90;;;;;;5019904;28;20037;-77
2023/10/08 13:13:34;;;;;;;1.55;0.40;;;17.90;99.90;;;;;;5035018;28;20052;-78
2023/10/08 13:16:07;;;;;;;0.77;0.40;;;18.00;99.90;;;;;;4997088;28;20044;-77
2023/10/08 13:18:37;;;;;;;2.53;0.40;;;18.00;99.90;;;;;;5019069;28;20033;-77
2023/10/08 13:21:04;;;;;;;0.98;0.40;;;18.00;99.90;;;;;;5009189;28;20041;-77
2023/10/08 13:23:33;;;;;;;1.25;0.63;;;18.00;99.90;;;;;;4996401;28;20045;-77
2023/10/08 13:26:04;;;;;;;1.08;0.50;;;18.10;99.90;;;;;;5001427;28;20121;-77
2023/10/08 13:28:33;;;;;;;3.08;0.63;;;18.10;99.90;;;;;;5001213;28;20048;-77
2023/10/08 13:31:09;;;;;;;1.65;0.50;;;18.00;99.90;;;;;;4998697;28;20037;-77
2023/10/08 13:33:39;;;;;;;1.70;0.60;;;18.00;99.90;;;;;;5000326;28;20033;-78
2023/10/08 13:36:09;;;;;;;1.38;0.40;;;17.90;99.90;;;;;;5015332;28;20524;-77
2023/10/08 13:38:37;;;;;;;1.52;0.40;;;17.90;99.90;;;;;;5000463;28;20025;-77
2023/10/08 13:41:06;;;;;;;1.45;0.40;;;17.90;99.90;;;;;;5002477;28;20060;-77
2023/10/08 13:43:33;;;;;;;1.40;0.30;;;17.90;99.90;;;;;;5020401;28;20038;-77
2023/10/08 13:46:15;;;;;;;1.85;0.40;;;18.00;99.90;;;;;;5001794;28;20040;-77
2023/10/08 13:48:48;;;;;;;1.77;0.40;;;18.00;99.90;;;;;;5008071;28;21064;-77
2023/10/08 13:51:20;;;;;;;2.92;0.32;;;18.00;99.90;;;;;;5025831;28;20025;-78
2023/10/08 13:53:59;;;;;;;0.80;0.30;;;18.10;99.90;;;;;;5004852;28;20024;-77
2023/10/08 13:56:27;;;;;;;0.98;0.30;;;18.20;99.90;;;;;;5019684;28;20029;-77
2023/10/08 13:59:12;;;;;;;0.95;0.35;;;18.20;99.90;;;;;;5022408;28;20041;-77
2023/10/08 14:01:43;;;;;;;1.63;0.40;;;18.20;99.90;;;;;;5019825;28;20420;-77
2023/10/08 14:04:09;;;;;;;1.30;0.40;;;18.20;99.90;;;;;;5020409;28;20042;-77
2023/10/08 14:06:38;;;;;;;2.03;0.45;;;18.10;99.90;;;;;;5022403;28;20060;-77
2023/10/08 14:09:08;;;;;;;1.85;0.30;;;17.90;99.90;;;;;;5022681;28;20029;-77
2023/10/08 14:11:35;;;;;;;1.52;0.40;;;17.80;99.90;;;;;;5024541;28;20032;-77
2023/10/08 14:14:07;;;;;;;1.70;0.47;;;17.80;99.90;;;;;;5006085;28;20034;-78
2023/10/08 14:16:41;;;;;;;1.05;0.40;;;17.80;99.90;;;;;;5001166;28;20034;-77
2023/10/08 14:19:12;;;;;;;1.25;0.30;;;17.80;99.90;;;;;;5019345;28;20017;-77
2023/10/08 14:21:48;;;;;;;1.52;0.38;;;17.80;99.90;;;;;;5004282;28;20047;-77
2023/10/08 14:24:18;;;;;;;1.15;0.40;;;17.80;99.90;;;;;;5005842;28;20041;-77
2023/10/08 14:26:51;;;;;;;1.40;0.50;;;17.80;99.90;;;;;;5004175;28;20044;-78
2023/10/08 14:29:18;;;;;;;2.85;0.60;;;17.70;99.90;;;;;;5023367;28;20033;-78
2023/10/08 14:31:48;;;;;;;2.25;0.70;;;17.70;99.90;;;;;;5021150;28;20037;-78
2023/10/08 14:45:10;;;;;;;1.50;0.47;;;17.60;99.90;;;;;;5020744;28;20048;-77